FDY weather

Findlay Airport
Findlay, Ohio, United States

Public forecast

Using degrees Fahrenheit for public forecast. Weather courtesy of forecast.io.

Current aviation weather report (METAR) for Findlay Airport

Retrieved 2019/10/14 10:53 UTC (50 minutes ago):

KFDY 141053Z AUTO 23004KT 10SM BKN060 06/03 A2999 RMK AO2 SLP154 T00610028

Aviation forecast (TAF) for Findlay Airport

Retrieved 2019/10/14 06:22 UTC (5 hours ago):

TAF KFDY 140520Z 1406/1506 33005KT P6SM BKN120 FM141400 27011KT P6SM SCT100 BKN250 FM141800 27008KT P6SM FEW045 FM142000 27007KT P6SM FEW070 FM142300 00000KT P6SM FEW250